Time;durP1;ratioP1;P1;durP2;ratioP2;P2;SDS_P1;SDS_P2;PMS_P1;PMS_P2;Temp;Humidity;BMP_temperature;BMP_pressure;BME280_temperature;BME280_humidity;BME280_pressure;Samples;Min_cycle;Max_cycle;Signal;HPM_P1;HPM_P2
2022/11/29 00:01:30;;;;;;;14.43;11.73;;;;;;;;;;5096167;28;20048;-90
2022/11/29 00:03:57;;;;;;;16.83;12.10;;;;;;;;;;5096219;28;20065;-90
2022/11/29 00:06:26;;;;;;;17.35;12.07;;;;;;;;;;5096327;28;20478;-90
2022/11/29 00:08:54;;;;;;;17.48;12.98;;;;;;;;;;5096156;28;20518;-90
2022/11/29 00:14:10;;;;;;;18.15;12.88;;;;;;;;;;5113995;28;20048;-90
2022/11/29 00:16:39;;;;;;;17.88;13.15;;;;;;;;;;5096394;28;20511;-90
2022/11/29 00:19:07;;;;;;;16.73;12.25;;;;;;;;;;5097218;28;20051;-90
2022/11/29 00:21:35;;;;;;;17.50;12.20;;;;;;;;;;5101327;28;20055;-90
2022/11/29 00:24:02;;;;;;;17.67;12.85;;;;;;;;;;5116388;28;20042;-89
2022/11/29 00:26:29;;;;;;;18.25;12.68;;;;;;;;;;5121431;28;20102;-90
2022/11/29 00:28:57;;;;;;;16.88;13.13;;;;;;;;;;5110837;28;20048;-90
2022/11/29 00:31:26;;;;;;;17.35;13.27;;;;;;;;;;5100303;28;20062;-89
2022/11/29 00:33:53;;;;;;;18.48;13.65;;;;;;;;;;5099739;28;20052;-90
2022/11/29 00:36:20;;;;;;;20.55;13.25;;;;;;;;;;5099969;28;20055;-90
2022/11/29 00:38:47;;;;;;;18.67;13.73;;;;;;;;;;5099797;28;20056;-90
2022/11/29 00:41:15;;;;;;;19.45;13.20;;;;;;;;;;5099644;28;20047;-89
2022/11/29 00:43:42;;;;;;;19.35;13.98;;;;;;;;;;5099492;28;20529;-89
2022/11/29 00:46:10;;;;;;;17.92;13.50;;;;;;;;;;5099473;28;20074;-90
2022/11/29 00:48:37;;;;;;;16.67;13.05;;;;;;;;;;5117388;28;20097;-90
2022/11/29 00:51:05;;;;;;;17.90;14.07;;;;;;;;;;5099800;28;20039;-90
2022/11/29 00:53:33;;;;;;;16.65;13.68;;;;;;;;;;5099654;28;20047;-90
2022/11/29 00:56:00;;;;;;;16.42;12.93;;;;;;;;;;5099399;28;20047;-89
2022/11/29 00:58:28;;;;;;;18.38;14.02;;;;;;;;;;5099358;28;20047;-89
2022/11/29 01:00:55;;;;;;;20.23;13.15;;;;;;;;;;5099391;28;20055;-90
2022/11/29 01:03:22;;;;;;;16.67;12.60;;;;;;;;;;5099417;28;20080;-89
2022/11/29 01:05:50;;;;;;;17.40;12.95;;;;;;;;;;5119414;28;20055;-89
2022/11/29 01:08:17;;;;;;;17.27;13.00;;;;;;;;;;5117275;28;20044;-90
2022/11/29 01:10:44;;;;;;;16.15;13.13;;;;;;;;;;5099079;28;20475;-90
2022/11/29 01:13:11;;;;;;;17.70;13.55;;;;;;;;;;5099247;28;20043;-90
2022/11/29 01:15:38;;;;;;;15.40;12.70;;;;;;;;;;5116688;28;20051;-90
2022/11/29 01:18:06;;;;;;;17.23;13.02;;;;;;;;;;5098824;28;20047;-90
2022/11/29 01:20:33;;;;;;;16.67;12.43;;;;;;;;;;5116984;28;20047;-90
2022/11/29 01:23:00;;;;;;;17.05;12.45;;;;;;;;;;5098860;28;20055;-90
2022/11/29 01:25:28;;;;;;;18.55;13.07;;;;;;;;;;5099139;28;20427;-89
2022/11/29 01:27:55;;;;;;;15.57;12.40;;;;;;;;;;5098910;28;20047;-90
2022/11/29 01:30:22;;;;;;;17.50;13.70;;;;;;;;;;5098652;28;20055;-90
2022/11/29 01:32:50;;;;;;;16.23;13.07;;;;;;;;;;5098735;28;20143;-89
2022/11/29 01:35:17;;;;;;;16.98;13.30;;;;;;;;;;5098808;28;20044;-90
2022/11/29 01:37:45;;;;;;;15.93;13.13;;;;;;;;;;5099484;28;20044;-90
2022/11/29 01:40:12;;;;;;;17.25;13.75;;;;;;;;;;5118392;28;20095;-90
2022/11/29 01:42:40;;;;;;;18.15;13.90;;;;;;;;;;5104622;28;20043;-89
2022/11/29 01:45:28;;;;;;;19.67;14.32;;;;;;;;;;5098680;28;20057;-90
2022/11/29 01:47:56;;;;;;;18.88;14.48;;;;;;;;;;5098919;28;20050;-89
2022/11/29 01:50:24;;;;;;;18.30;14.55;;;;;;;;;;5098474;28;20506;-89
2022/11/29 01:52:51;;;;;;;18.30;13.63;;;;;;;;;;5100899;27;20047;-89
2022/11/29 01:55:19;;;;;;;19.52;14.40;;;;;;;;;;5118860;27;20043;-88
2022/11/29 01:57:47;;;;;;;18.85;14.75;;;;;;;;;;5118611;27;20043;-89
2022/11/29 02:00:16;;;;;;;18.83;14.05;;;;;;;;;;5118831;27;20055;-89
2022/11/29 02:03:01;;;;;;;19.48;14.63;;;;;;;;;;5119018;27;20447;-89
2022/11/29 02:05:29;;;;;;;21.77;15.05;;;;;;;;;;5118804;27;20062;-89
2022/11/29 02:07:58;;;;;;;22.33;16.25;;;;;;;;;;5118650;27;20043;-89
2022/11/29 02:10:32;;;;;;;20.33;15.25;;;;;;;;;;5118796;27;20099;-88
2022/11/29 02:13:13;;;;;;;24.65;15.93;;;;;;;;;;5118814;27;20503;-88
2022/11/29 02:15:50;;;;;;;20.67;15.75;;;;;;;;;;5136303;27;20047;-89
2022/11/29 02:18:22;;;;;;;20.92;15.13;;;;;;;;;;5118455;27;20051;-89
2022/11/29 02:20:49;;;;;;;21.92;15.98;;;;;;;;;;5118222;27;20053;-88
2022/11/29 02:23:35;;;;;;;20.17;15.18;;;;;;;;;;5136386;27;20082;-88
2022/11/29 02:26:21;;;;;;;21.25;15.85;;;;;;;;;;5136055;27;20047;-88
2022/11/29 02:29:04;;;;;;;19.67;15.20;;;;;;;;;;5136064;27;20082;-89
2022/11/29 02:31:54;;;;;;;20.80;15.45;;;;;;;;;;5136140;27;20054;-89
2022/11/29 02:34:37;;;;;;;23.38;16.48;;;;;;;;;;5123020;27;20376;-88
2022/11/29 02:37:16;;;;;;;21.27;16.42;;;;;;;;;;5117919;27;20065;-89
2022/11/29 02:39:55;;;;;;;20.70;16.33;;;;;;;;;;5135901;27;20043;-89
2022/11/29 02:42:47;;;;;;;21.10;15.65;;;;;;;;;;5135881;27;20122;-88
2022/11/29 02:45:34;;;;;;;26.13;18.08;;;;;;;;;;5118784;27;20104;-88
2022/11/29 02:48:04;;;;;;;22.85;16.58;;;;;;;;;;5117694;27;20055;-88
2022/11/29 02:50:44;;;;;;;23.08;16.58;;;;;;;;;;5137145;27;20047;-88
2022/11/29 02:53:23;;;;;;;24.42;15.20;;;;;;;;;;5144800;27;20057;-88
2022/11/29 02:56:09;;;;;;;22.67;16.10;;;;;;;;;;5124785;27;20058;-88
2022/11/29 02:58:49;;;;;;;22.02;16.48;;;;;;;;;;5117845;27;20053;-88
2022/11/29 03:01:16;;;;;;;20.42;15.38;;;;;;;;;;5117659;27;20058;-89
2022/11/29 03:03:54;;;;;;;23.52;16.23;;;;;;;;;;5122571;27;20051;-89
2022/11/29 03:06:31;;;;;;;21.52;15.32;;;;;;;;;;5127994;27;20100;-89
2022/11/29 03:09:02;;;;;;;21.63;16.27;;;;;;;;;;5117368;27;20051;-88
2022/11/29 03:11:34;;;;;;;20.50;15.52;;;;;;;;;;5117265;27;20495;-88
2022/11/29 03:14:07;;;;;;;24.95;16.23;;;;;;;;;;5116932;27;20410;-90
2022/11/29 03:16:53;;;;;;;22.08;16.00;;;;;;;;;;5117206;27;20468;-88
2022/11/29 03:19:20;;;;;;;21.20;15.10;;;;;;;;;;5117100;27;20046;-89
2022/11/29 03:21:51;;;;;;;20.80;16.25;;;;;;;;;;5135187;27;20051;-88
2022/11/29 03:24:23;;;;;;;21.45;15.77;;;;;;;;;;5117096;27;20077;-89
2022/11/29 03:26:53;;;;;;;22.25;15.70;;;;;;;;;;5116870;27;20046;-88
2022/11/29 03:29:21;;;;;;;22.45;14.35;;;;;;;;;;5134868;27;20219;-88
2022/11/29 03:32:00;;;;;;;23.75;15.68;;;;;;;;;;5135086;27;20081;-88
2022/11/29 03:34:33;;;;;;;17.98;14.15;;;;;;;;;;5116598;27;20086;-89
2022/11/29 03:37:05;;;;;;;24.65;16.08;;;;;;;;;;5116608;27;20074;-88
2022/11/29 03:39:38;;;;;;;23.30;16.70;;;;;;;;;;5116725;27;20047;-88
2022/11/29 03:42:08;;;;;;;24.67;15.68;;;;;;;;;;5116892;27;20047;-88
2022/11/29 03:44:48;;;;;;;21.83;16.05;;;;;;;;;;5134685;27;20402;-89
2022/11/29 03:47:19;;;;;;;23.63;16.95;;;;;;;;;;5116497;27;20073;-88
2022/11/29 03:49:52;;;;;;;24.83;17.17;;;;;;;;;;5116619;27;20076;-89
2022/11/29 03:52:19;;;;;;;;;;;;;;;;;;5117105;28;20055;-89
2022/11/29 03:54:53;;;;;;;21.65;15.90;;;;;;;;;;5116173;28;19919;-89
2022/11/29 03:57:23;;;;;;;25.13;16.27;;;;;;;;;;5134752;27;20051;-88
2022/11/29 04:00:03;;;;;;;23.70;15.57;;;;;;;;;;5134423;27;20055;-88
2022/11/29 04:02:55;;;;;;;25.85;18.17;;;;;;;;;;5116433;27;20130;-89
2022/11/29 04:05:41;;;;;;;31.73;21.83;;;;;;;;;;5117258;28;20471;-89
2022/11/29 04:08:17;;;;;;;29.58;21.02;;;;;;;;;;5134973;28;20063;-89
2022/11/29 04:11:04;;;;;;;29.95;19.98;;;;;;;;;;5117222;28;20047;-88
2022/11/29 04:13:43;;;;;;;27.52;18.60;;;;;;;;;;5116765;28;20062;-88
2022/11/29 04:16:13;;;;;;;30.40;18.65;;;;;;;;;;5116525;28;20065;-88
2022/11/29 04:18:59;;;;;;;32.45;19.83;;;;;;;;;;5134356;28;20051;-88
2022/11/29 04:21:32;;;;;;;29.77;19.10;;;;;;;;;;5116195;28;20051;-88
2022/11/29 04:24:11;;;;;;;29.90;18.45;;;;;;;;;;5134299;28;20163;-88
2022/11/29 04:26:47;;;;;;;25.52;17.08;;;;;;;;;;5116335;28;20043;-89
2022/11/29 04:29:23;;;;;;;29.42;18.15;;;;;;;;;;5116218;28;20124;-89
2022/11/29 04:32:11;;;;;;;29.52;17.42;;;;;;;;;;5116134;28;20418;-88
2022/11/29 04:34:44;;;;;;;27.52;18.55;;;;;;;;;;5134113;28;20051;-88
2022/11/29 04:37:31;;;;;;;29.83;19.25;;;;;;;;;;5116186;28;20134;-88
2022/11/29 04:39:58;;;;;;;28.17;18.48;;;;;;;;;;5115987;28;20055;-89
2022/11/29 04:42:42;;;;;;;29.63;20.38;;;;;;;;;;5116343;28;20047;-89
2022/11/29 04:45:28;;;;;;;28.23;18.67;;;;;;;;;;5117671;28;20047;-88
2022/11/29 04:48:09;;;;;;;26.73;17.33;;;;;;;;;;5117703;28;20066;-88
2022/11/29 04:50:37;;;;;;;25.95;17.45;;;;;;;;;;5133966;28;20458;-88
2022/11/29 04:53:16;;;;;;;22.67;16.40;;;;;;;;;;5115933;28;20502;-88
2022/11/29 04:55:46;;;;;;;25.27;15.25;;;;;;;;;;5133897;28;20086;-88
2022/11/29 04:58:33;;;;;;;24.35;16.48;;;;;;;;;;5115791;28;20126;-88
2022/11/29 05:01:06;;;;;;;29.38;18.42;;;;;;;;;;5115561;28;20061;-88
2022/11/29 05:03:36;;;;;;;23.27;16.90;;;;;;;;;;5114142;28;20063;-88
2022/11/29 05:06:11;;;;;;;23.42;16.30;;;;;;;;;;5115215;27;20047;-88
2022/11/29 05:08:47;;;;;;;25.90;17.70;;;;;;;;;;5119650;27;20054;-88
2022/11/29 05:11:33;;;;;;;28.55;17.23;;;;;;;;;;5120658;27;20070;-90
2022/11/29 05:14:23;;;;;;;25.50;16.25;;;;;;;;;;5119817;27;20392;-88
2022/11/29 05:16:50;;;;;;;24.95;16.90;;;;;;;;;;5119323;27;20051;-89
2022/11/29 05:19:24;;;;;;;24.73;16.25;;;;;;;;;;5119641;27;20043;-89
2022/11/29 05:22:03;;;;;;;27.77;16.52;;;;;;;;;;5135137;27;20098;-89
2022/11/29 05:24:39;;;;;;;35.03;17.98;;;;;;;;;;5122063;27;20058;-89
2022/11/29 05:27:25;;;;;;;30.17;17.38;;;;;;;;;;5119400;27;20489;-88
2022/11/29 05:29:59;;;;;;;107.30;21.55;;;;;;;;;;5136984;27;20597;-89
2022/11/29 05:32:33;;;;;;;64.03;20.98;;;;;;;;;;5118899;27;20054;-89
2022/11/29 05:35:04;;;;;;;35.13;18.08;;;;;;;;;;5119466;27;20050;-89
2022/11/29 05:37:43;;;;;;;70.95;20.23;;;;;;;;;;5119481;27;20144;-89
2022/11/29 05:40:13;;;;;;;35.38;18.45;;;;;;;;;;5119424;27;20434;-89
2022/11/29 05:42:55;;;;;;;34.65;17.70;;;;;;;;;;5120186;27;20053;-88
2022/11/29 05:45:32;;;;;;;29.13;18.40;;;;;;;;;;5119720;27;20039;-89
2022/11/29 05:48:14;;;;;;;30.85;18.25;;;;;;;;;;5118573;27;20062;-89
2022/11/29 05:50:45;;;;;;;26.88;17.35;;;;;;;;;;5136832;27;20063;-88
2022/11/29 05:53:20;;;;;;;25.80;18.10;;;;;;;;;;5118977;27;20043;-88
2022/11/29 05:56:14;;;;;;;24.58;17.00;;;;;;;;;;5118724;27;20047;-88
2022/11/29 05:58:50;;;;;;;35.83;16.92;;;;;;;;;;5081201;27;20407;-89
2022/11/29 06:01:17;;;;;;;37.50;20.27;;;;;;;;;;5118642;27;20054;-88
2022/11/29 06:04:05;;;;;;;26.17;16.98;;;;;;;;;;5118437;27;20047;-89
2022/11/29 06:06:44;;;;;;;28.92;17.30;;;;;;;;;;5119877;27;20071;-89
2022/11/29 06:09:20;;;;;;;23.92;16.85;;;;;;;;;;5136320;27;20062;-88
2022/11/29 06:11:50;;;;;;;24.05;16.42;;;;;;;;;;5118828;27;20479;-89
2022/11/29 06:14:33;;;;;;;24.83;16.83;;;;;;;;;;5118466;27;20054;-88
2022/11/29 06:17:24;;;;;;;24.07;16.67;;;;;;;;;;5118437;27;20058;-89
2022/11/29 06:19:55;;;;;;;25.33;16.65;;;;;;;;;;5118316;27;20070;-89
2022/11/29 06:22:30;;;;;;;25.23;16.63;;;;;;;;;;5118532;27;20126;-89
2022/11/29 06:25:06;;;;;;;42.67;31.40;;;;;;;;;;5118334;27;20043;-89
2022/11/29 06:28:01;;;;;;;24.75;16.98;;;;;;;;;;5118347;27;20066;-89
2022/11/29 06:30:32;;;;;;;26.92;16.58;;;;;;;;;;5118130;27;20046;-89
2022/11/29 06:33:06;;;;;;;22.20;16.02;;;;;;;;;;5136140;27;20066;-89
2022/11/29 06:35:36;;;;;;;22.98;16.33;;;;;;;;;;5132340;27;20031;-89
2022/11/29 06:38:09;;;;;;;24.27;17.27;;;;;;;;;;5122075;27;20050;-89
2022/11/29 06:40:36;;;;;;;24.67;15.90;;;;;;;;;;5136143;27;20047;-88
2022/11/29 06:43:04;;;;;;;24.05;16.45;;;;;;;;;;5117820;27;20458;-87
2022/11/29 06:45:31;;;;;;;23.70;16.52;;;;;;;;;;5117770;27;20054;-88
2022/11/29 06:48:02;;;;;;;24.00;16.15;;;;;;;;;;5117928;27;20047;-88
2022/11/29 06:50:45;;;;;;;24.95;16.02;;;;;;;;;;5118194;27;20134;-89
2022/11/29 06:53:34;;;;;;;22.83;16.02;;;;;;;;;;5118159;27;20043;-89
2022/11/29 06:56:20;;;;;;;22.25;15.50;;;;;;;;;;5117846;27;20123;-89
2022/11/29 06:59:11;;;;;;;27.27;15.35;;;;;;;;;;5117767;27;20051;-89
2022/11/29 07:01:53;;;;;;;21.83;15.48;;;;;;;;;;5071955;27;20050;-89
2022/11/29 07:04:44;;;;;;;19.98;14.68;;;;;;;;;;5117923;27;20043;-89
2022/11/29 07:07:19;;;;;;;17.95;13.88;;;;;;;;;;5135660;27;20594;-89
2022/11/29 07:09:46;;;;;;;;;;;;;;;;;;5117989;27;20047;-90
2022/11/29 07:12:13;;;;;;;24.45;15.95;;;;;;;;;;5118088;27;19926;-89
2022/11/29 07:14:41;;;;;;;19.17;14.65;;;;;;;;;;5117450;27;20384;-89
2022/11/29 07:17:21;;;;;;;21.67;15.60;;;;;;;;;;5117241;27;20099;-89
2022/11/29 07:20:00;;;;;;;21.17;15.43;;;;;;;;;;5117430;27;20054;-88
2022/11/29 07:22:36;;;;;;;22.38;15.65;;;;;;;;;;5117407;27;20047;-89
2022/11/29 07:25:22;;;;;;;22.17;15.20;;;;;;;;;;5136142;27;20047;-88
2022/11/29 07:27:55;;;;;;;22.58;14.88;;;;;;;;;;5135300;27;20487;-88
2022/11/29 07:30:43;;;;;;;22.27;15.25;;;;;;;;;;5116656;27;20047;-89
2022/11/29 07:33:28;;;;;;;21.85;14.95;;;;;;;;;;5116892;27;20483;-88
2022/11/29 07:36:02;;;;;;;20.95;15.10;;;;;;;;;;5117018;27;20043;-88
2022/11/29 07:38:51;;;;;;;22.13;14.60;;;;;;;;;;5117322;27;20051;-89
2022/11/29 07:41:22;;;;;;;22.35;14.52;;;;;;;;;;5117028;27;20047;-88
2022/11/29 07:43:58;;;;;;;20.88;14.13;;;;;;;;;;5117479;27;20055;-89
2022/11/29 07:46:27;;;;;;;19.10;14.75;;;;;;;;;;5117638;27;20050;-89
2022/11/29 07:48:54;;;;;;;19.95;13.82;;;;;;;;;;5143699;27;20076;-87
2022/11/29 07:51:22;;;;;;;19.85;14.13;;;;;;;;;;5128060;27;20466;-88
2022/11/29 07:53:50;;;;;;;20.90;14.77;;;;;;;;;;5117477;27;20055;-88
2022/11/29 07:56:17;;;;;;;19.38;14.07;;;;;;;;;;5116828;28;20063;-88
2022/11/29 07:58:45;;;;;;;18.58;14.32;;;;;;;;;;5117057;27;20096;-88
2022/11/29 08:01:12;;;;;;;19.52;14.25;;;;;;;;;;5116606;28;20138;-88
2022/11/29 08:03:41;;;;;;;19.05;14.25;;;;;;;;;;5116693;27;20043;-88
2022/11/29 08:06:08;;;;;;;19.42;14.40;;;;;;;;;;5135508;27;20055;-88
2022/11/29 08:08:35;;;;;;;19.85;13.90;;;;;;;;;;5117419;28;20043;-88
2022/11/29 08:11:11;;;;;;;19.52;13.90;;;;;;;;;;5117340;28;20055;-88
2022/11/29 08:13:38;;;;;;;17.55;13.68;;;;;;;;;;5117267;28;20044;-88
2022/11/29 08:16:05;;;;;;;17.95;13.73;;;;;;;;;;5117188;28;20043;-88
2022/11/29 08:18:33;;;;;;;19.05;14.82;;;;;;;;;;5135222;28;20051;-88
2022/11/29 08:21:04;;;;;;;18.60;13.52;;;;;;;;;;5117691;28;20415;-88
2022/11/29 08:23:31;;;;;;;20.30;13.43;;;;;;;;;;5117631;28;20050;-88
2022/11/29 08:26:00;;;;;;;21.48;14.68;;;;;;;;;;5135694;28;20047;-88
2022/11/29 08:28:27;;;;;;;18.63;13.25;;;;;;;;;;5125672;28;20047;-88
2022/11/29 08:31:01;;;;;;;17.92;13.40;;;;;;;;;;5128609;28;20485;-87
2022/11/29 08:33:29;;;;;;;19.17;13.63;;;;;;;;;;5096388;28;20040;-88
2022/11/29 08:35:56;;;;;;;17.35;12.77;;;;;;;;;;5093024;28;20503;-88
2022/11/29 08:38:23;;;;;;;19.52;14.75;;;;;;;;;;5092262;28;20052;-89
2022/11/29 08:40:50;;;;;;;22.83;16.65;;;;;;;;;;5094281;28;20044;-88
2022/11/29 08:43:17;;;;;;;17.92;13.80;;;;;;;;;;5097481;28;20048;-88
2022/11/29 08:45:45;;;;;;;20.48;15.50;;;;;;;;;;5096115;28;20492;-88
2022/11/29 08:48:13;;;;;;;15.10;12.88;;;;;;;;;;5096736;28;20052;-88
2022/11/29 08:50:40;;;;;;;16.50;13.15;;;;;;;;;;5096382;28;20058;-88
2022/11/29 08:55:58;;;;;;;16.10;12.55;;;;;;;;;;5097011;28;20086;-89
2022/11/29 08:58:26;;;;;;;16.67;12.57;;;;;;;;;;5096046;28;20492;-88
2022/11/29 09:00:53;;;;;;;15.52;12.18;;;;;;;;;;5096923;28;20048;-88
2022/11/29 09:06:08;;;;;;;13.90;11.52;;;;;;;;;;5103109;28;20044;-89
2022/11/29 09:08:39;;;;;;;15.60;12.40;;;;;;;;;;5096969;28;20388;-88
2022/11/29 09:11:07;;;;;;;15.10;11.77;;;;;;;;;;5096969;28;20059;-88
2022/11/29 09:13:35;;;;;;;15.75;12.48;;;;;;;;;;5095931;28;20044;-88
2022/11/29 09:16:06;;;;;;;14.93;11.95;;;;;;;;;;5095755;28;20048;-88
2022/11/29 09:18:33;;;;;;;15.48;12.10;;;;;;;;;;5095728;28;20189;-88
2022/11/29 09:21:00;;;;;;;17.13;12.80;;;;;;;;;;5096443;28;20056;-87
2022/11/29 09:23:27;;;;;;;15.60;12.40;;;;;;;;;;5095632;28;20052;-88
2022/11/29 09:25:55;;;;;;;14.57;11.82;;;;;;;;;;5096908;28;20051;-88
2022/11/29 09:28:22;;;;;;;15.23;11.88;;;;;;;;;;5095931;28;20059;-88
2022/11/29 09:30:49;;;;;;;13.02;11.07;;;;;;;;;;5096494;28;20044;-88
2022/11/29 09:33:17;;;;;;;18.33;11.88;;;;;;;;;;5095215;28;20052;-88
2022/11/29 09:35:44;;;;;;;15.50;11.75;;;;;;;;;;5095395;28;20044;-88
2022/11/29 09:38:12;;;;;;;15.02;11.57;;;;;;;;;;5095284;28;20048;-88
2022/11/29 09:40:52;;;;;;;15.05;11.73;;;;;;;;;;5095422;28;20057;-88
2022/11/29 09:43:22;;;;;;;15.48;12.05;;;;;;;;;;5095965;28;20484;-87
2022/11/29 09:45:55;;;;;;;16.58;11.15;;;;;;;;;;5095087;28;20067;-89
2022/11/29 09:48:22;;;;;;;14.88;10.85;;;;;;;;;;5096503;28;20048;-89
2022/11/29 09:51:08;;;;;;;12.48;10.05;;;;;;;;;;5095216;28;20048;-88
2022/11/29 09:53:46;;;;;;;11.80;10.60;;;;;;;;;;5095179;28;20059;-88
2022/11/29 09:56:13;;;;;;;16.75;11.93;;;;;;;;;;5095692;28;20661;-89
2022/11/29 09:58:48;;;;;;;22.63;14.20;;;;;;;;;;5095373;28;20075;-88
2022/11/29 10:01:22;;;;;;;18.00;12.23;;;;;;;;;;5094818;28;20063;-88
2022/11/29 10:03:52;;;;;;;15.13;11.50;;;;;;;;;;5095042;28;20055;-88
2022/11/29 10:06:35;;;;;;;14.30;10.65;;;;;;;;;;5095246;28;20131;-89
2022/11/29 10:09:15;;;;;;;14.98;10.75;;;;;;;;;;5096482;28;20103;-88
2022/11/29 10:11:48;;;;;;;12.60;10.77;;;;;;;;;;5095033;28;20059;-89
2022/11/29 10:14:19;;;;;;;12.38;10.43;;;;;;;;;;5095353;28;20052;-88
2022/11/29 10:16:54;;;;;;;14.77;11.18;;;;;;;;;;5102666;28;20036;-88
2022/11/29 10:19:35;;;;;;;14.20;10.90;;;;;;;;;;5105816;28;20048;-89
2022/11/29 10:22:05;;;;;;;13.98;10.65;;;;;;;;;;5094823;28;20080;-89
2022/11/29 10:24:33;;;;;;;13.65;10.98;;;;;;;;;;5094337;28;20044;-88
2022/11/29 10:27:00;;;;;;;14.30;9.85;;;;;;;;;;5095473;28;20513;-89
2022/11/29 10:29:27;;;;;;;13.52;10.45;;;;;;;;;;5094574;28;20048;-89
2022/11/29 10:31:55;;;;;;;13.00;10.13;;;;;;;;;;5094229;28;20055;-88
2022/11/29 10:34:24;;;;;;;12.55;9.93;;;;;;;;;;5094461;28;20047;-88
2022/11/29 10:36:53;;;;;;;15.23;10.80;;;;;;;;;;5094253;28;20428;-88
2022/11/29 10:39:23;;;;;;;12.10;10.15;;;;;;;;;;5095280;28;20119;-88
2022/11/29 10:41:53;;;;;;;13.40;10.43;;;;;;;;;;5094019;28;20435;-88
2022/11/29 10:44:20;;;;;;;14.32;10.55;;;;;;;;;;5094143;28;20146;-88
2022/11/29 10:46:47;;;;;;;13.48;9.68;;;;;;;;;;5094650;28;20496;-89
2022/11/29 10:49:16;;;;;;;12.23;9.23;;;;;;;;;;5095005;28;20040;-88
2022/11/29 10:51:44;;;;;;;13.45;9.57;;;;;;;;;;5094135;28;20051;-88
2022/11/29 10:54:18;;;;;;;13.80;10.02;;;;;;;;;;5094004;28;20052;-88
2022/11/29 10:56:45;;;;;;;14.77;10.43;;;;;;;;;;5093723;28;20048;-88
2022/11/29 10:59:23;;;;;;;12.43;9.70;;;;;;;;;;5093931;28;20044;-88
2022/11/29 11:01:51;;;;;;;12.35;9.18;;;;;;;;;;5093381;28;20044;-87
2022/11/29 11:04:25;;;;;;;11.15;8.85;;;;;;;;;;5092122;28;20048;-88
2022/11/29 11:06:55;;;;;;;19.27;10.13;;;;;;;;;;5093557;28;20051;-88
2022/11/29 11:09:32;;;;;;;11.75;9.15;;;;;;;;;;5094612;28;20491;-87
2022/11/29 11:12:01;;;;;;;11.35;8.90;;;;;;;;;;5094613;28;20185;-88
2022/11/29 11:14:31;;;;;;;11.38;9.10;;;;;;;;;;5093970;28;20135;-88
2022/11/29 11:17:15;;;;;;;12.48;9.23;;;;;;;;;;5094724;28;20079;-88
2022/11/29 11:19:53;;;;;;;12.65;9.10;;;;;;;;;;5093755;28;20067;-89
2022/11/29 11:22:21;;;;;;;10.43;8.05;;;;;;;;;;5094934;28;20044;-89
2022/11/29 11:24:56;;;;;;;13.13;9.38;;;;;;;;;;5093710;28;20132;-89
2022/11/29 11:27:34;;;;;;;12.13;9.27;;;;;;;;;;5097472;28;20126;-88
2022/11/29 11:30:04;;;;;;;15.90;11.10;;;;;;;;;;5100969;28;20075;-89
2022/11/29 11:32:31;;;;;;;13.00;9.75;;;;;;;;;;5110691;28;20048;-88
2022/11/29 11:35:00;;;;;;;11.02;8.88;;;;;;;;;;5093395;28;20056;-88
2022/11/29 11:37:28;;;;;;;13.65;8.70;;;;;;;;;;5093404;28;20434;-88
2022/11/29 11:40:19;;;;;;;10.85;8.40;;;;;;;;;;5094599;28;20050;-88
2022/11/29 11:42:47;;;;;;;12.35;8.38;;;;;;;;;;5079047;28;20043;-89
2022/11/29 11:45:14;;;;;;;12.63;9.07;;;;;;;;;;5094147;28;20492;-89
2022/11/29 11:47:41;;;;;;;10.25;8.85;;;;;;;;;;5093842;28;20691;-89
2022/11/29 11:50:29;;;;;;;11.27;9.07;;;;;;;;;;5093476;28;20071;-89
2022/11/29 11:53:07;;;;;;;14.35;8.88;;;;;;;;;;5092811;28;20126;-89
2022/11/29 11:55:42;;;;;;;12.73;8.43;;;;;;;;;;5093295;28;20074;-89
2022/11/29 11:58:13;;;;;;;8.98;7.85;;;;;;;;;;5093155;28;20047;-88
2022/11/29 12:00:40;;;;;;;13.00;8.57;;;;;;;;;;5093022;28;20114;-89
2022/11/29 12:03:46;;;;;;;13.57;7.72;;;;;;;;;;5093290;28;20416;-89
2022/11/29 12:06:17;;;;;;;19.23;9.55;;;;;;;;;;5092511;28;20088;-88
2022/11/29 12:08:45;;;;;;;10.98;7.78;;;;;;;;;;5093764;28;20059;-89
2022/11/29 12:11:14;;;;;;;13.68;7.60;;;;;;;;;;5092750;28;20052;-89
2022/11/29 12:13:45;;;;;;;12.75;7.65;;;;;;;;;;5092791;28;20048;-87
2022/11/29 12:16:26;;;;;;;12.00;8.68;;;;;;;;;;5095569;28;20048;-89
2022/11/29 12:18:58;;;;;;;14.05;8.88;;;;;;;;;;5097101;28;20048;-88
2022/11/29 12:21:27;;;;;;;16.20;8.45;;;;;;;;;;5097091;28;20047;-90
2022/11/29 12:24:02;;;;;;;16.52;10.05;;;;;;;;;;5096813;28;20052;-89
2022/11/29 12:26:40;;;;;;;17.27;7.78;;;;;;;;;;5098076;28;20404;-89
2022/11/29 12:29:27;;;;;;;18.00;8.32;;;;;;;;;;5097056;28;20048;-89
2022/11/29 12:32:04;;;;;;;8.73;7.05;;;;;;;;;;5096707;28;20460;-89
2022/11/29 12:34:50;;;;;;;7.93;6.70;;;;;;;;;;5096609;28;20052;-89
2022/11/29 12:37:42;;;;;;;8.80;6.95;;;;;;;;;;5096584;28;20052;-89
2022/11/29 12:40:29;;;;;;;7.90;6.63;;;;;;;;;;5096740;28;20075;-90
2022/11/29 12:42:56;;;;;;;8.48;6.65;;;;;;;;;;5096329;28;20484;-89
2022/11/29 12:45:26;;;;;;;9.82;7.40;;;;;;;;;;5109160;28;20016;-88
2022/11/29 12:48:05;;;;;;;10.85;7.38;;;;;;;;;;5109812;28;20056;-89
2022/11/29 12:50:39;;;;;;;8.68;6.18;;;;;;;;;;5096397;28;20086;-89
2022/11/29 12:53:25;;;;;;;13.82;6.97;;;;;;;;;;5096527;28;20090;-88
2022/11/29 12:56:14;;;;;;;11.57;7.30;;;;;;;;;;5097251;28;20052;-89
2022/11/29 12:59:04;;;;;;;7.63;6.05;;;;;;;;;;5096094;28;20056;-89
2022/11/29 13:01:32;;;;;;;9.07;5.65;;;;;;;;;;5096218;28;20058;-90
2022/11/29 13:04:02;;;;;;;7.57;6.25;;;;;;;;;;5096076;28;20059;-89
2022/11/29 13:06:37;;;;;;;10.70;6.93;;;;;;;;;;5095984;28;20471;-88
2022/11/29 13:09:19;;;;;;;6.63;5.72;;;;;;;;;;5096933;28;20056;-89
2022/11/29 13:11:52;;;;;;;8.27;6.65;;;;;;;;;;5095756;28;20040;-89
2022/11/29 13:14:20;;;;;;;;;;;;;;;;;;5096215;28;20051;-88
2022/11/29 13:17:26;;;;;;;7.20;5.63;;;;;;;;;;5096173;28;19920;-89
2022/11/29 13:19:55;;;;;;;6.57;5.72;;;;;;;;;;5095716;28;20048;-89
2022/11/29 13:22:28;;;;;;;10.50;5.50;;;;;;;;;;5096508;28;20040;-88
2022/11/29 13:25:01;;;;;;;8.05;6.05;;;;;;;;;;5095537;28;20055;-88
2022/11/29 13:27:34;;;;;;;8.23;6.30;;;;;;;;;;5094903;28;20055;-88
2022/11/29 13:30:03;;;;;;;9.30;5.90;;;;;;;;;;5096545;28;20044;-89
2022/11/29 13:32:39;;;;;;;10.57;6.47;;;;;;;;;;5095429;28;20135;-88
2022/11/29 13:35:15;;;;;;;10.10;6.95;;;;;;;;;;5095595;28;20048;-89
2022/11/29 13:37:48;;;;;;;7.30;6.22;;;;;;;;;;5096210;28;20056;-89
2022/11/29 13:40:36;;;;;;;11.10;7.38;;;;;;;;;;5095952;28;20074;-89
2022/11/29 13:43:15;;;;;;;13.57;7.15;;;;;;;;;;5095285;28;20058;-89
2022/11/29 13:46:01;;;;;;;14.27;7.93;;;;;;;;;;5095245;28;20142;-89
2022/11/29 13:48:28;;;;;;;10.52;6.95;;;;;;;;;;5096576;28;20048;-89
2022/11/29 13:50:56;;;;;;;12.80;7.50;;;;;;;;;;5096653;28;20066;-88
2022/11/29 13:53:24;;;;;;;8.00;6.15;;;;;;;;;;5096770;28;20047;-88
2022/11/29 13:56:00;;;;;;;7.18;6.22;;;;;;;;;;5096183;28;20050;-88
2022/11/29 13:58:27;;;;;;;12.93;7.82;;;;;;;;;;5098714;28;20059;-89
2022/11/29 14:00:59;;;;;;;11.05;6.90;;;;;;;;;;5113459;28;20047;-88
2022/11/29 14:03:31;;;;;;;11.20;7.20;;;;;;;;;;5098173;28;20063;-89
2022/11/29 14:06:10;;;;;;;14.97;7.13;;;;;;;;;;5094661;28;20109;-89
2022/11/29 14:08:53;;;;;;;9.35;7.15;;;;;;;;;;5094384;28;20054;-88
2022/11/29 14:11:43;;;;;;;12.73;6.70;;;;;;;;;;5095706;28;20059;-88
2022/11/29 14:14:20;;;;;;;12.45;7.13;;;;;;;;;;5094589;28;20052;-89
2022/11/29 14:16:48;;;;;;;9.35;6.70;;;;;;;;;;5094436;28;20048;-89
2022/11/29 14:19:21;;;;;;;11.05;6.70;;;;;;;;;;5094685;28;20062;-89
2022/11/29 14:22:01;;;;;;;13.55;7.22;;;;;;;;;;5094762;28;20127;-89
2022/11/29 14:24:31;;;;;;;7.53;6.30;;;;;;;;;;5094724;28;20127;-89
2022/11/29 14:27:08;;;;;;;7.72;6.20;;;;;;;;;;5094378;28;20044;-89
2022/11/29 14:29:48;;;;;;;9.13;6.78;;;;;;;;;;5095856;28;20055;-89
2022/11/29 14:32:35;;;;;;;8.75;6.75;;;;;;;;;;5099966;28;20047;-88
2022/11/29 14:35:09;;;;;;;8.88;6.60;;;;;;;;;;5094964;28;20049;-89
2022/11/29 14:37:52;;;;;;;9.25;7.00;;;;;;;;;;5094138;28;20051;-88
2022/11/29 14:40:19;;;;;;;8.00;6.95;;;;;;;;;;5093902;28;20048;-89
2022/11/29 14:42:47;;;;;;;10.38;7.63;;;;;;;;;;5094153;28;20040;-89
2022/11/29 14:45:31;;;;;;;8.82;7.13;;;;;;;;;;5094084;28;20051;-89
2022/11/29 14:47:59;;;;;;;14.95;8.48;;;;;;;;;;5094364;28;20071;-88
2022/11/29 14:50:29;;;;;;;12.82;8.15;;;;;;;;;;5094226;28;20052;-89
2022/11/29 14:52:56;;;;;;;11.32;7.70;;;;;;;;;;5094087;28;20462;-89
2022/11/29 14:55:24;;;;;;;9.20;8.07;;;;;;;;;;5094265;28;20051;-89
2022/11/29 14:57:51;;;;;;;11.30;7.85;;;;;;;;;;5093879;28;20044;-89
2022/11/29 15:00:20;;;;;;;8.98;6.90;;;;;;;;;;5093799;28;20412;-89
2022/11/29 15:02:48;;;;;;;20.52;7.47;;;;;;;;;;5093730;28;20135;-89
2022/11/29 15:05:21;;;;;;;9.88;7.93;;;;;;;;;;5094014;28;20488;-89
2022/11/29 15:08:08;;;;;;;12.30;8.65;;;;;;;;;;5093832;28;20054;-88
2022/11/29 15:10:39;;;;;;;13.68;7.97;;;;;;;;;;5093661;28;20130;-88